createdAt,value
2022-09-01T00:00:49.405Z,0.00
2022-09-01T00:01:49.344Z,0.00
2022-09-01T00:02:49.412Z,0.00
2022-09-01T00:03:49.408Z,0.00
2022-09-01T00:04:49.737Z,0.00
2022-09-01T00:05:49.468Z,0.00
2022-09-01T00:06:49.505Z,0.00
2022-09-01T00:07:49.539Z,0.00
2022-09-01T00:08:49.562Z,0.00
2022-09-01T00:09:49.597Z,0.00
2022-09-01T00:10:49.633Z,0.00
2022-09-01T00:11:50.689Z,0.00
2022-09-01T00:12:49.686Z,0.00
2022-09-01T00:13:49.722Z,0.00
2022-09-01T00:14:49.748Z,0.00
2022-09-01T00:15:49.886Z,0.00
2022-09-01T00:16:50.206Z,0.00
2022-09-01T00:17:49.863Z,0.00
2022-09-01T00:18:50.180Z,0.00
2022-09-01T00:20:49.941Z,0.00
2022-09-01T00:21:49.975Z,0.00
2022-09-01T00:22:50.006Z,0.00
2022-09-01T00:26:50.144Z,0.00
2022-09-01T00:27:50.167Z,0.00
2022-09-01T00:28:50.192Z,0.00
2022-09-01T00:29:50.330Z,0.00
2022-09-01T00:30:50.619Z,0.00
2022-09-01T00:31:50.286Z,0.00
2022-09-01T00:32:50.312Z,0.00
2022-09-01T00:33:50.347Z,0.00
2022-09-01T00:34:50.378Z,0.00
2022-09-01T00:35:50.411Z,0.00
2022-09-01T00:36:50.745Z,0.00
2022-09-01T00:37:50.480Z,0.00
2022-09-01T00:38:50.504Z,0.00
2022-09-01T00:39:50.537Z,0.00
2022-09-01T00:40:50.640Z,0.00
2022-09-01T00:41:50.620Z,0.00
2022-09-01T00:42:50.628Z,0.00
2022-09-01T00:43:50.911Z,0.00
2022-09-01T00:44:50.695Z,0.00
2022-09-01T00:46:55.184Z,0.00
2022-09-01T00:47:50.786Z,0.00
2022-09-01T00:48:50.822Z,0.00
2022-09-01T00:49:50.854Z,0.00
2022-09-01T00:50:52.640Z,0.00
2022-09-01T00:51:51.013Z,0.00
2022-09-01T00:52:50.953Z,0.00
2022-09-01T00:53:50.974Z,0.00
2022-09-01T00:54:51.007Z,0.00
2022-09-01T00:55:51.032Z,0.00
2022-09-01T00:56:57.502Z,0.00
2022-09-01T00:57:51.348Z,0.00
2022-09-01T00:58:51.165Z,0.00
2022-09-01T00:59:51.169Z,0.00
2022-09-01T01:00:51.198Z,0.00
2022-09-01T01:01:51.373Z,0.00
2022-09-01T01:02:51.318Z,0.00
2022-09-01T01:03:51.292Z,0.00
2022-09-01T01:04:51.726Z,0.00
2022-09-01T01:05:51.353Z,0.00
2022-09-01T01:06:51.385Z,0.00
2022-09-01T01:07:51.413Z,0.00
2022-09-01T01:08:51.448Z,0.00
2022-09-01T01:09:51.473Z,0.00
2022-09-01T01:10:51.507Z,0.00
2022-09-01T01:11:51.837Z,0.00
2022-09-01T01:12:51.576Z,0.00
2022-09-01T01:13:51.601Z,0.00
2022-09-01T01:14:51.740Z,0.00
2022-09-01T01:15:51.676Z,0.00
2022-09-01T01:16:51.729Z,0.00
2022-09-01T01:17:51.726Z,0.00
2022-09-01T01:18:52.107Z,0.00
2022-09-01T01:20:51.820Z,0.00
2022-09-01T01:21:51.850Z,0.00
2022-09-01T01:22:51.970Z,0.00
2022-09-01T01:23:51.912Z,0.00
2022-09-01T01:24:51.942Z,0.00
2022-09-01T01:25:52.228Z,0.00
2022-09-01T01:26:52.012Z,0.00
2022-09-01T01:27:52.141Z,0.00
2022-09-01T01:28:52.075Z,0.00
2022-09-01T01:29:52.116Z,0.00
2022-09-01T01:30:52.307Z,0.00
2022-09-01T01:31:52.164Z,0.00
2022-09-01T01:32:52.497Z,0.00
2022-09-01T01:34:52.258Z,0.00
2022-09-01T01:35:52.284Z,0.00
2022-09-01T01:36:52.321Z,0.00
2022-09-01T01:37:52.348Z,0.00
2022-09-01T01:39:52.413Z,0.00
2022-09-01T01:40:52.698Z,0.00
2022-09-01T01:41:52.477Z,0.00
2022-09-01T01:42:52.512Z,0.00
2022-09-01T01:43:52.552Z,0.00
2022-09-01T01:45:52.698Z,0.00
2022-09-01T01:46:52.630Z,0.00
2022-09-01T01:47:52.962Z,0.00
2022-09-01T01:48:52.749Z,0.00
2022-09-01T01:49:52.731Z,0.00
2022-09-01T01:50:52.756Z,0.00
2022-09-01T01:51:52.786Z,0.00
2022-09-01T01:52:55.198Z,0.00
2022-09-01T01:55:52.911Z,0.00
2022-09-01T01:56:53.246Z,0.00
2022-09-01T01:58:53.001Z,0.00
2022-09-01T01:59:53.036Z,0.00
2022-09-01T02:00:53.066Z,0.00
2022-09-01T02:01:53.202Z,0.00
2022-09-01T02:03:53.183Z,0.00
2022-09-01T02:04:53.491Z,0.00
2022-09-01T02:05:53.225Z,0.00
2022-09-01T02:06:53.260Z,0.00
2022-09-01T02:07:53.288Z,0.00
2022-09-01T02:08:53.323Z,0.00
2022-09-01T02:09:53.365Z,0.00
2022-09-01T02:10:53.630Z,0.00
2022-09-01T02:11:53.404Z,0.00
2022-09-01T02:12:53.444Z,0.00
2022-09-01T02:13:53.475Z,0.00
2022-09-01T02:14:53.508Z,0.00
2022-09-01T02:15:53.532Z,0.00
2022-09-01T02:16:53.625Z,0.00
2022-09-01T02:19:53.963Z,0.00
2022-09-01T02:20:53.695Z,0.00
2022-09-01T02:21:53.726Z,0.00
2022-09-01T02:23:53.783Z,0.00
2022-09-01T02:24:53.820Z,0.00
2022-09-01T02:26:15.084Z,0.00
2022-09-01T02:26:53.874Z,0.00
2022-09-01T02:28:55.958Z,0.00
2022-09-01T02:29:53.967Z,0.00
2022-09-01T02:30:54.067Z,0.00
2022-09-01T02:31:54.133Z,0.00
2022-09-01T02:33:54.618Z,0.00
2022-09-01T02:34:54.131Z,0.00
2022-09-01T02:35:54.160Z,0.00
2022-09-01T02:38:56.469Z,0.00
2022-09-01T02:39:54.582Z,0.00
2022-09-01T02:40:54.309Z,0.00
2022-09-01T02:41:54.343Z,0.00
2022-09-01T02:42:54.372Z,0.00
2022-09-01T02:43:54.407Z,0.00
2022-09-01T02:44:54.436Z,0.00
2022-09-01T02:45:54.803Z,0.00
2022-09-01T02:46:54.806Z,0.00
2022-09-01T02:47:54.540Z,0.00
2022-09-01T02:48:54.571Z,0.00
2022-09-01T02:49:54.594Z,0.00
2022-09-01T02:50:54.621Z,0.00
2022-09-01T02:51:54.652Z,0.00
2022-09-01T02:52:54.688Z,0.00
2022-09-01T02:53:54.996Z,0.00
2022-09-01T02:54:54.746Z,0.00
2022-09-01T02:55:54.778Z,0.00
2022-09-01T02:57:54.838Z,0.00
2022-09-01T02:58:54.871Z,0.00
2022-09-01T02:59:54.899Z,0.00
2022-09-01T03:00:55.353Z,0.00
2022-09-01T03:01:54.964Z,0.00
2022-09-01T03:03:55.026Z,0.00
2022-09-01T03:04:55.166Z,0.00
2022-09-01T03:05:55.091Z,0.00
2022-09-01T03:06:55.304Z,0.00
2022-09-01T03:07:55.410Z,0.00
2022-09-01T03:08:55.182Z,0.00
2022-09-01T03:09:55.213Z,0.00
2022-09-01T03:10:55.263Z,0.00
2022-09-01T03:11:55.286Z,0.00
2022-09-01T03:12:55.313Z,0.00
2022-09-01T03:13:55.339Z,0.00
2022-09-01T03:14:55.666Z,0.00
2022-09-01T03:15:55.399Z,0.00
2022-09-01T03:16:55.493Z,0.00
2022-09-01T03:17:56.158Z,0.00
2022-09-01T03:18:55.488Z,0.00
2022-09-01T03:20:55.552Z,0.00
2022-09-01T03:21:55.887Z,0.00
2022-09-01T03:22:55.611Z,0.00
2022-09-01T03:23:55.648Z,0.00
2022-09-01T03:24:55.686Z,0.00
2022-09-01T03:26:55.738Z,0.00
2022-09-01T03:27:55.769Z,0.00
2022-09-01T03:28:56.107Z,0.00
2022-09-01T03:29:55.836Z,0.00
2022-09-01T03:30:55.863Z,0.00
2022-09-01T03:31:55.962Z,0.00
2022-09-01T03:32:55.925Z,0.00
2022-09-01T03:34:55.990Z,0.00
2022-09-01T03:35:56.315Z,0.00
2022-09-01T03:36:56.047Z,0.00
2022-09-01T03:39:56.398Z,0.00
2022-09-01T03:40:56.172Z,0.00
2022-09-01T03:41:56.204Z,0.00
2022-09-01T03:42:56.563Z,0.00
2022-09-01T03:43:56.267Z,0.00
2022-09-01T03:44:56.291Z,0.00
2022-09-01T03:45:56.378Z,0.00
2022-09-01T03:46:56.361Z,0.00
2022-09-01T03:47:56.388Z,0.00
2022-09-01T03:48:56.418Z,0.00
2022-09-01T03:49:56.753Z,0.00
2022-09-01T03:50:56.479Z,0.00
2022-09-01T03:51:56.510Z,0.00
2022-09-01T03:52:56.544Z,0.00
2022-09-01T03:53:56.576Z,0.00
2022-09-01T03:54:56.702Z,0.00
2022-09-01T03:55:56.635Z,0.00
2022-09-01T03:56:56.968Z,0.00
2022-09-01T03:57:56.698Z,0.00
2022-09-01T03:58:56.835Z,0.00
2022-09-01T03:59:56.859Z,0.00
2022-09-01T04:00:56.872Z,0.00
2022-09-01T04:01:56.873Z,0.00
2022-09-01T04:02:56.850Z,0.00
2022-09-01T04:03:57.182Z,0.00
2022-09-01T04:04:56.913Z,0.00
2022-09-01T04:05:56.953Z,0.00
2022-09-01T04:07:57.013Z,0.00
2022-09-01T04:08:57.038Z,0.00
2022-09-01T04:09:57.325Z,0.00
2022-09-01T04:10:57.102Z,0.00
2022-09-01T04:11:57.139Z,0.00
2022-09-01T04:12:57.186Z,0.00
2022-09-01T04:13:57.249Z,0.00
2022-09-01T04:15:57.252Z,0.00
2022-09-01T04:16:57.691Z,0.00
2022-09-01T04:17:57.325Z,0.00
2022-09-01T04:18:57.343Z,4.00
2022-09-01T04:19:57.376Z,4.00
2022-09-01T04:20:57.410Z,0.00
2022-09-01T04:21:57.436Z,4.00
2022-09-01T04:22:57.769Z,4.00
2022-09-01T04:23:57.504Z,8.00
2022-09-01T04:24:57.645Z,4.00
2022-09-01T04:25:57.564Z,8.00
2022-09-01T04:26:57.595Z,8.00
2022-09-01T04:27:57.625Z,8.00
2022-09-01T04:28:57.906Z,12.00
2022-09-01T04:29:58.051Z,12.00
2022-09-01T04:30:57.775Z,16.00
2022-09-01T04:31:57.768Z,16.00
2022-09-01T04:32:57.778Z,20.00
2022-09-01T04:33:57.809Z,20.00
2022-09-01T04:34:57.851Z,24.00
2022-09-01T04:35:58.121Z,32.00
2022-09-01T04:36:57.901Z,32.00
2022-09-01T04:37:57.936Z,36.00
2022-09-01T04:38:57.968Z,44.00
2022-09-01T04:39:57.995Z,48.00
2022-09-01T04:40:58.323Z,56.00
2022-09-01T04:42:58.082Z,72.00
2022-09-01T04:43:58.418Z,76.00
2022-09-01T04:44:58.148Z,84.00
2022-09-01T04:45:58.229Z,92.00
2022-09-01T04:47:58.237Z,116.00
2022-09-01T04:48:58.267Z,124.00
2022-09-01T04:49:58.311Z,132.00
2022-09-01T04:50:58.587Z,148.00
2022-09-01T04:51:58.365Z,156.00
2022-09-01T04:52:58.387Z,168.00
2022-09-01T04:53:58.423Z,180.00
2022-09-01T04:54:58.451Z,196.00
2022-09-01T04:55:58.483Z,208.00
2022-09-01T04:56:58.527Z,220.00
2022-09-01T04:57:58.844Z,232.00
2022-09-01T04:58:58.612Z,248.00
2022-09-01T04:59:58.615Z,264.00
2022-09-01T05:00:58.748Z,280.00
2022-09-01T05:01:58.690Z,292.00
2022-09-01T05:02:58.702Z,308.00
2022-09-01T05:03:58.737Z,324.00
2022-09-01T05:04:59.069Z,344.00
2022-09-01T05:05:58.793Z,360.00
2022-09-01T05:06:59.119Z,384.00
2022-09-01T05:07:58.851Z,412.00
2022-09-01T05:08:58.883Z,432.00
2022-09-01T05:10:01.288Z,452.00
2022-09-01T05:10:58.948Z,464.00
2022-09-01T05:11:59.283Z,468.00
2022-09-01T05:12:59.008Z,476.00
2022-09-01T05:13:59.043Z,480.00
2022-09-01T05:14:59.073Z,492.00
2022-09-01T05:15:59.127Z,508.00
2022-09-01T05:16:59.184Z,524.00
2022-09-01T05:17:59.186Z,544.00
2022-09-01T05:18:59.490Z,564.00
2022-09-01T05:19:59.224Z,584.00
2022-09-01T05:20:59.258Z,604.00
2022-09-01T05:21:59.290Z,620.00
2022-09-01T05:22:59.324Z,632.00
2022-09-01T05:23:59.351Z,640.00
2022-09-01T05:24:59.375Z,644.00
2022-09-01T05:25:59.709Z,652.00
2022-09-01T05:26:59.437Z,660.00
2022-09-01T05:27:59.489Z,672.00
2022-09-01T05:28:59.497Z,684.00
2022-09-01T05:29:59.532Z,700.00
2022-09-01T05:30:59.614Z,712.00
2022-09-01T05:31:59.594Z,720.00
2022-09-01T05:32:59.625Z,736.00
2022-09-01T05:33:59.696Z,744.00
2022-09-01T05:34:59.682Z,756.00
2022-09-01T05:35:59.716Z,768.00
2022-09-01T05:36:59.747Z,780.00
2022-09-01T05:37:59.788Z,788.00
2022-09-01T05:39:00.116Z,796.00
2022-09-01T05:39:59.838Z,812.00
2022-09-01T05:40:59.877Z,824.00
2022-09-01T05:41:59.904Z,836.00
2022-09-01T05:42:59.931Z,844.00
2022-09-01T05:44:00.970Z,856.00
2022-09-01T05:44:59.993Z,860.00
2022-09-01T05:46:06.999Z,852.00
2022-09-01T05:47:00.197Z,868.00
2022-09-01T05:48:00.096Z,864.00
2022-09-01T05:49:00.150Z,872.00
2022-09-01T05:50:00.160Z,896.00
2022-09-01T05:51:00.184Z,920.00
2022-09-01T05:52:00.217Z,904.00
2022-09-01T05:53:00.489Z,908.00
2022-09-01T05:54:00.280Z,916.00
2022-09-01T05:56:00.333Z,936.00
2022-09-01T05:57:17.353Z,940.00
2022-09-01T05:58:00.396Z,952.00
2022-09-01T06:00:00.457Z,972.00
2022-09-01T06:01:00.488Z,972.00
2022-09-01T06:02:00.682Z,980.00
2022-09-01T06:03:00.747Z,984.00
2022-09-01T06:04:00.586Z,1008.00
2022-09-01T06:05:00.861Z,1032.00
2022-09-01T06:06:00.641Z,1024.00
2022-09-01T06:07:08.946Z,1020.00
2022-09-01T06:08:00.707Z,1028.00
2022-09-01T06:09:00.737Z,1032.00
2022-09-01T06:10:00.773Z,1060.00
2022-09-01T06:11:01.100Z,1044.00
2022-09-01T06:12:00.827Z,1068.00
2022-09-01T06:13:00.864Z,1104.00
2022-09-01T06:14:00.889Z,1088.00
2022-09-01T06:15:00.924Z,1112.00
2022-09-01T06:16:01.008Z,1104.00
2022-09-01T06:17:01.116Z,1120.00
2022-09-01T06:18:01.264Z,1128.00
2022-09-01T06:19:01.045Z,1148.00
2022-09-01T06:20:01.183Z,1160.00
2022-09-01T06:21:01.221Z,1160.00
2022-09-01T06:22:01.292Z,1148.00
2022-09-01T06:23:01.295Z,1160.00
2022-09-01T06:24:01.340Z,1152.00
2022-09-01T06:25:03.020Z,1160.00
2022-09-01T06:26:01.280Z,1168.00
2022-09-01T06:27:01.296Z,1156.00
2022-09-01T06:28:01.331Z,1160.00
2022-09-01T06:30:01.380Z,1208.00
2022-09-01T06:31:01.503Z,1216.00
2022-09-01T06:32:01.697Z,1220.00
2022-09-01T06:33:01.473Z,1228.00
2022-09-01T06:34:01.608Z,1232.00
2022-09-01T06:35:01.537Z,1244.00
2022-09-01T06:36:01.579Z,1248.00
2022-09-01T06:38:02.084Z,1256.00
2022-09-01T06:39:01.660Z,1260.00
2022-09-01T06:40:01.735Z,1264.00
2022-09-01T06:41:01.723Z,1268.00
2022-09-01T06:42:01.752Z,1272.00
2022-09-01T06:43:01.797Z,1276.00
2022-09-01T06:44:01.823Z,1284.00
2022-09-01T06:45:02.097Z,1288.00
2022-09-01T06:46:01.874Z,1292.00
2022-09-01T06:47:02.081Z,1296.00
2022-09-01T06:48:01.939Z,1300.00
2022-09-01T06:49:01.975Z,1308.00
2022-09-01T06:50:02.001Z,1316.00
2022-09-01T06:52:02.310Z,1324.00
2022-09-01T06:54:02.122Z,1332.00
2022-09-01T06:55:07.126Z,1336.00
2022-09-01T06:56:02.184Z,1336.00
2022-09-01T06:58:04.702Z,1348.00
2022-09-01T07:00:02.362Z,1360.00
2022-09-01T07:01:02.337Z,1360.00
2022-09-01T07:02:04.789Z,1364.00
2022-09-01T07:03:02.398Z,1368.00
2022-09-01T07:04:02.429Z,1372.00
2022-09-01T07:05:02.727Z,1376.00
2022-09-01T07:06:02.972Z,1380.00
2022-09-01T07:07:55.135Z,1388.00
2022-09-01T07:08:06.068Z,1392.00
2022-09-01T07:12:25.463Z,1396.00
2022-09-01T07:13:06.117Z,1396.00
2022-09-01T07:14:18.199Z,1392.00
2022-09-01T07:18:02.861Z,1400.00
2022-09-01T07:19:02.901Z,1400.00
2022-09-01T07:21:07.039Z,1400.00
2022-09-01T07:22:35.273Z,1400.00
2022-09-01T07:23:04.270Z,1404.00
2022-09-01T07:24:10.260Z,1404.00
2022-09-01T07:25:11.739Z,1408.00
2022-09-01T07:26:04.257Z,1412.00
2022-09-01T07:27:10.860Z,1412.00
2022-09-01T07:28:03.177Z,1412.00
2022-09-01T07:30:03.544Z,1416.00
2022-09-01T07:31:48.903Z,1420.00
2022-09-01T07:35:03.397Z,1420.00
2022-09-01T07:36:32.987Z,1428.00
2022-09-01T07:38:47.486Z,1432.00
2022-09-01T07:44:03.674Z,1440.00
2022-09-01T07:46:36.685Z,1444.00
2022-09-01T07:47:20.279Z,1448.00
2022-09-01T07:48:03.914Z,1448.00
2022-09-01T07:49:29.648Z,1448.00
2022-09-01T07:52:04.081Z,1456.00
2022-09-01T07:53:03.951Z,1456.00
2022-09-01T07:54:04.229Z,1456.00
2022-09-01T07:55:04.010Z,1460.00
2022-09-01T07:56:04.045Z,1464.00
2022-09-01T07:57:04.069Z,1464.00
2022-09-01T07:58:04.108Z,1468.00
2022-09-01T07:59:04.140Z,1472.00
2022-09-01T08:00:04.466Z,1476.00
2022-09-01T08:01:04.194Z,1476.00
2022-09-01T08:02:04.235Z,1480.00
2022-09-01T08:03:04.312Z,1480.00
2022-09-01T08:04:04.292Z,1484.00
2022-09-01T08:05:04.320Z,1480.00
2022-09-01T08:06:04.352Z,1480.00
2022-09-01T08:07:04.637Z,1480.00
2022-09-01T08:08:18.269Z,1484.00
2022-09-01T08:09:04.448Z,1484.00
2022-09-01T08:10:04.477Z,1480.00
2022-09-01T08:11:04.918Z,1488.00
2022-09-01T08:12:04.540Z,1488.00
2022-09-01T08:13:04.575Z,1488.00
2022-09-01T08:14:04.851Z,1488.00
2022-09-01T08:16:08.638Z,1492.00
2022-09-01T08:18:04.878Z,1492.00
2022-09-01T08:19:16.063Z,1496.00
2022-09-01T08:20:04.787Z,1496.00
2022-09-01T08:21:05.124Z,1492.00
2022-09-01T08:22:04.858Z,1492.00
2022-09-01T08:23:04.889Z,1496.00
2022-09-01T08:24:04.917Z,1496.00
2022-09-01T08:25:04.951Z,1500.00
2022-09-01T08:26:04.979Z,1500.00
2022-09-01T08:27:05.005Z,1500.00
2022-09-01T08:28:05.337Z,1508.00
2022-09-01T08:29:05.072Z,1508.00
2022-09-01T08:30:05.111Z,1508.00
2022-09-01T08:31:09.026Z,1512.00
2022-09-01T08:32:05.163Z,1508.00
2022-09-01T08:33:12.426Z,1508.00
2022-09-01T08:34:05.237Z,1508.00
2022-09-01T08:35:05.559Z,1508.00
2022-09-01T08:37:05.321Z,1512.00
2022-09-01T08:38:05.352Z,1512.00
2022-09-01T08:39:05.624Z,1516.00
2022-09-01T08:40:05.477Z,1520.00
2022-09-01T08:41:05.517Z,1520.00
2022-09-01T08:42:05.539Z,1524.00
2022-09-01T08:43:05.509Z,1524.00
2022-09-01T08:44:05.547Z,1528.00
2022-09-01T08:45:05.569Z,1528.00
2022-09-01T08:46:05.636Z,1532.00
2022-09-01T08:47:05.639Z,1536.00
2022-09-01T08:48:37.076Z,1540.00
2022-09-01T08:50:06.231Z,1548.00
2022-09-01T08:51:11.570Z,1552.00
2022-09-01T08:52:05.790Z,1556.00
2022-09-01T08:53:09.346Z,1560.00
2022-09-01T08:54:05.867Z,1564.00
2022-09-01T08:55:05.882Z,1568.00
2022-09-01T08:56:05.922Z,1568.00
2022-09-01T08:57:05.946Z,1568.00
2022-09-01T08:58:05.980Z,1576.00
2022-09-01T09:00:06.342Z,1588.00
2022-09-01T09:01:06.101Z,1596.00
2022-09-01T09:03:07.619Z,1356.00
2022-09-01T09:04:06.167Z,1356.00
2022-09-01T09:05:16.802Z,1604.00
2022-09-01T09:07:06.268Z,1628.00
2022-09-01T09:08:06.873Z,1644.00
2022-09-01T09:09:06.325Z,1656.00
2022-09-01T09:10:06.351Z,1716.00
2022-09-01T09:11:06.387Z,1748.00
2022-09-01T09:12:08.777Z,1876.00
2022-09-01T09:13:06.446Z,2132.00
2022-09-01T09:14:06.546Z,2328.00
2022-09-01T09:15:06.513Z,2584.00
2022-09-01T09:16:08.307Z,2668.00
2022-09-01T09:17:06.580Z,2468.00
2022-09-01T09:18:06.970Z,2704.00
2022-09-01T09:19:06.637Z,2752.00
2022-09-01T09:20:06.667Z,2624.00
2022-09-01T09:21:06.779Z,2436.00
2022-09-01T09:22:06.736Z,2364.00
2022-09-01T09:23:06.764Z,2132.00
2022-09-01T09:24:06.795Z,1964.00
2022-09-01T09:25:06.837Z,2092.00
2022-09-01T09:26:08.214Z,2012.00
2022-09-01T09:28:06.921Z,1944.00
2022-09-01T09:30:11.209Z,1908.00
2022-09-01T09:31:08.271Z,1900.00
2022-09-01T09:32:22.449Z,1652.00
2022-09-01T09:33:44.391Z,1652.00
2022-09-01T09:34:07.109Z,1664.00
2022-09-01T09:35:07.143Z,1672.00
2022-09-01T09:36:07.424Z,1656.00
2022-09-01T09:37:07.206Z,1624.00
2022-09-01T09:38:07.236Z,1584.00
2022-09-01T09:39:07.269Z,1592.00
2022-09-01T09:40:08.545Z,1656.00
2022-09-01T09:41:17.242Z,1616.00
2022-09-01T09:42:07.667Z,1596.00
2022-09-01T09:43:07.401Z,1716.00
2022-09-01T09:44:09.164Z,1772.00
2022-09-01T09:45:08.168Z,1800.00
2022-09-01T09:46:23.206Z,1880.00
2022-09-01T09:47:21.852Z,1964.00
2022-09-01T09:48:07.552Z,1960.00
2022-09-01T09:49:07.894Z,1960.00
2022-09-01T09:50:07.668Z,1964.00
2022-09-01T09:51:07.664Z,1988.00
2022-09-01T09:52:07.680Z,2076.00
2022-09-01T09:53:07.710Z,2100.00
2022-09-01T09:54:07.748Z,2116.00
2022-09-01T09:55:07.777Z,2108.00
2022-09-01T09:56:08.106Z,2152.00
2022-09-01T09:57:07.840Z,2096.00
2022-09-01T09:58:07.868Z,1976.00
2022-09-01T09:59:07.902Z,1952.00
2022-09-01T10:00:07.952Z,2028.00
2022-09-01T10:01:08.013Z,2156.00
2022-09-01T10:02:07.994Z,2224.00
2022-09-01T10:03:08.870Z,2348.00
2022-09-01T10:04:08.095Z,2516.00
2022-09-01T10:05:08.092Z,2576.00
2022-09-01T10:06:08.125Z,2588.00
2022-09-01T10:07:08.157Z,2736.00
2022-09-01T10:08:08.237Z,2824.00
2022-09-01T10:09:08.241Z,2772.00
2022-09-01T10:10:08.555Z,2724.00
2022-09-01T10:11:08.309Z,2712.00
2022-09-01T10:12:08.358Z,2988.00
2022-09-01T10:14:08.379Z,2756.00
2022-09-01T10:15:12.593Z,2712.00
2022-09-01T10:16:10.352Z,2808.00
2022-09-01T10:17:08.828Z,2676.00
2022-09-01T10:19:12.521Z,2320.00
2022-09-01T10:20:08.566Z,2180.00
2022-09-01T10:21:08.606Z,2100.00
2022-09-01T10:22:08.629Z,2092.00
2022-09-01T10:23:15.569Z,1880.00
2022-09-01T10:24:27.074Z,1992.00
2022-09-01T10:25:10.395Z,1908.00
2022-09-01T10:26:09.492Z,1864.00
2022-09-01T10:27:14.256Z,2084.00
2022-09-01T10:28:08.829Z,2084.00
2022-09-01T10:29:12.102Z,1896.00
2022-09-01T10:30:12.408Z,2044.00
2022-09-01T10:31:09.477Z,1992.00
2022-09-01T10:33:19.171Z,2020.00
2022-09-01T10:34:09.016Z,1864.00
2022-09-01T10:35:09.048Z,1804.00
2022-09-01T10:36:09.079Z,2032.00
2022-09-01T10:37:11.366Z,2060.00
2022-09-01T10:38:12.105Z,1852.00
2022-09-01T10:39:09.397Z,2036.00
2022-09-01T10:40:09.277Z,2040.00
2022-09-01T10:41:14.294Z,2032.00
2022-09-01T10:42:09.270Z,2036.00
2022-09-01T10:43:12.406Z,2024.00
2022-09-01T10:44:09.337Z,2020.00
2022-09-01T10:45:09.613Z,2048.00
2022-09-01T10:46:15.541Z,2164.00
2022-09-01T10:47:13.485Z,2240.00
2022-09-01T10:48:13.296Z,2256.00
2022-09-01T10:49:09.700Z,2232.00
2022-09-01T10:50:10.147Z,2232.00
2022-09-01T10:51:09.556Z,2296.00
2022-09-01T10:52:13.235Z,2316.00
2022-09-01T10:53:09.624Z,2344.00
2022-09-01T10:55:09.689Z,2516.00
2022-09-01T10:56:20.063Z,2508.00
2022-09-01T10:57:12.198Z,2564.00
2022-09-01T11:00:34.883Z,2356.00
2022-09-01T11:01:11.360Z,2280.00
2022-09-01T11:02:27.752Z,2240.00
2022-09-01T11:04:10.141Z,2328.00
2022-09-01T11:05:10.066Z,2344.00
2022-09-01T11:06:13.003Z,2316.00
2022-09-01T11:07:13.184Z,2284.00
2022-09-01T11:08:16.972Z,2220.00
2022-09-01T11:09:10.144Z,2216.00
2022-09-01T11:10:11.755Z,2252.00
2022-09-01T11:11:10.202Z,2264.00
2022-09-01T11:12:10.228Z,2216.00
2022-09-01T11:13:10.512Z,2424.00
2022-09-01T11:14:10.298Z,2488.00
2022-09-01T11:15:10.330Z,2508.00
2022-09-01T11:16:10.539Z,2296.00
2022-09-01T11:17:10.489Z,2256.00
2022-09-01T11:18:10.419Z,2228.00
2022-09-01T11:19:16.045Z,2192.00
2022-09-01T11:20:10.492Z,2172.00
2022-09-01T11:21:10.514Z,2172.00
2022-09-01T11:22:11.388Z,2192.00
2022-09-01T11:23:10.579Z,2232.00
2022-09-01T11:24:10.615Z,2240.00
2022-09-01T11:26:26.258Z,2544.00
2022-09-01T11:27:10.711Z,2540.00
2022-09-01T11:28:10.852Z,2712.00
2022-09-01T11:29:10.784Z,2736.00
2022-09-01T11:30:10.801Z,2680.00
2022-09-01T11:31:10.838Z,2688.00
2022-09-01T11:32:11.262Z,2640.00
2022-09-01T11:33:10.903Z,2672.00
2022-09-01T11:34:10.936Z,2648.00
2022-09-01T11:35:10.966Z,2468.00
2022-09-01T11:36:10.991Z,2212.00
2022-09-01T11:37:11.034Z,2136.00
2022-09-01T11:38:11.060Z,2100.00
2022-09-01T11:39:11.145Z,2092.00
2022-09-01T11:40:11.189Z,2120.00
2022-09-01T11:41:11.171Z,2452.00
2022-09-01T11:42:11.195Z,2796.00
2022-09-01T11:43:12.794Z,3256.00
2022-09-01T11:44:11.272Z,3584.00
2022-09-01T11:45:11.287Z,3664.00
2022-09-01T11:47:14.331Z,4252.00
2022-09-01T11:48:11.383Z,4436.00
2022-09-01T11:49:11.424Z,4476.00
2022-09-01T11:50:11.748Z,4420.00
2022-09-01T11:51:14.591Z,4276.00
2022-09-01T11:52:11.515Z,4320.00
2022-09-01T11:54:11.576Z,4268.00
2022-09-01T11:55:11.613Z,4116.00
2022-09-01T11:56:11.639Z,3884.00
2022-09-01T11:57:11.978Z,3704.00
2022-09-01T11:58:17.141Z,3588.00
2022-09-01T11:59:11.738Z,3452.00
2022-09-01T12:00:11.772Z,3344.00
2022-09-01T12:01:11.810Z,3312.00
2022-09-01T12:02:11.938Z,3336.00
2022-09-01T12:03:12.007Z,3352.00
2022-09-01T12:04:12.196Z,3316.00
2022-09-01T12:05:11.933Z,3400.00
2022-09-01T12:06:11.959Z,3568.00
2022-09-01T12:07:11.996Z,3628.00
2022-09-01T12:08:12.029Z,3664.00
2022-09-01T12:09:12.058Z,3684.00
2022-09-01T12:10:12.091Z,3740.00
2022-09-01T12:11:12.424Z,3752.00
2022-09-01T12:12:12.158Z,3544.00
2022-09-01T12:13:12.194Z,3788.00
2022-09-01T12:14:12.222Z,3804.00
2022-09-01T12:16:18.454Z,3812.00
2022-09-01T12:17:12.415Z,3728.00
2022-09-01T12:18:12.600Z,3628.00
2022-09-01T12:19:12.386Z,3464.00
2022-09-01T12:20:12.410Z,3624.00
2022-09-01T12:21:12.550Z,3636.00
2022-09-01T12:22:12.533Z,3492.00
2022-09-01T12:23:12.550Z,3440.00
2022-09-01T12:24:12.846Z,3416.00
2022-09-01T12:25:12.585Z,3592.00
2022-09-01T12:26:12.618Z,3624.00
2022-09-01T12:27:12.643Z,3648.00
2022-09-01T12:28:12.677Z,3500.00
2022-09-01T12:29:12.720Z,3624.00
2022-09-01T12:30:12.737Z,3776.00
2022-09-01T12:31:12.774Z,3944.00
2022-09-01T12:32:12.949Z,4068.00
2022-09-01T12:33:28.269Z,3972.00
2022-09-01T12:34:12.876Z,3748.00
2022-09-01T12:35:12.913Z,3544.00
2022-09-01T12:36:13.255Z,3392.00
2022-09-01T12:37:12.970Z,3180.00
2022-09-01T12:38:13.046Z,3004.00
2022-09-01T12:39:13.035Z,3136.00
2022-09-01T12:40:13.109Z,3180.00
2022-09-01T12:41:13.115Z,3124.00
2022-09-01T12:42:13.671Z,3052.00
2022-09-01T12:43:13.160Z,3104.00
2022-09-01T12:44:13.198Z,3292.00
2022-09-01T12:45:13.249Z,3412.00
2022-09-01T12:46:13.298Z,3500.00
2022-09-01T12:47:13.290Z,3608.00
2022-09-01T12:48:13.338Z,3540.00
2022-09-01T12:50:13.834Z,3320.00
2022-09-01T12:51:13.425Z,3328.00
2022-09-01T12:52:14.700Z,3136.00
2022-09-01T12:53:13.489Z,3120.00
2022-09-01T12:54:13.516Z,3236.00
2022-09-01T12:55:13.635Z,3364.00
2022-09-01T12:56:13.582Z,3568.00
2022-09-01T12:57:13.620Z,3676.00
2022-09-01T12:58:13.651Z,3944.00
2022-09-01T12:59:13.802Z,4156.00
2022-09-01T13:00:13.712Z,4392.00
2022-09-01T13:01:16.527Z,4504.00
2022-09-01T13:02:13.865Z,4476.00
2022-09-01T13:04:14.293Z,4252.00
2022-09-01T13:07:14.191Z,3596.00
2022-09-01T13:08:13.982Z,3512.00
2022-09-01T13:09:14.005Z,3472.00
2022-09-01T13:10:14.041Z,3476.00
2022-09-01T13:12:14.112Z,3676.00
2022-09-01T13:13:14.440Z,3720.00
2022-09-01T13:14:14.166Z,3792.00
2022-09-01T13:16:14.319Z,4020.00
2022-09-01T13:17:14.890Z,4288.00
2022-09-01T13:18:14.302Z,4668.00
2022-09-01T13:19:19.783Z,5024.00
2022-09-01T13:20:14.666Z,5280.00
2022-09-01T13:21:14.400Z,5396.00
2022-09-01T13:22:14.431Z,5512.00
2022-09-01T13:23:14.466Z,5620.00
2022-09-01T13:24:14.744Z,5644.00
2022-09-01T13:25:14.530Z,5620.00
2022-09-01T13:26:14.571Z,5584.00
2022-09-01T13:27:22.517Z,5624.00
2022-09-01T13:28:14.649Z,5748.00
2022-09-01T13:29:14.659Z,5876.00
2022-09-01T13:30:14.689Z,5940.00
2022-09-01T13:31:30.672Z,6008.00
2022-09-01T13:32:18.281Z,6020.00
2022-09-01T13:33:19.331Z,5996.00
2022-09-01T13:34:22.269Z,5956.00
2022-09-01T13:35:15.030Z,5932.00
2022-09-01T13:37:14.925Z,5884.00
2022-09-01T13:38:14.964Z,5884.00
2022-09-01T13:39:15.671Z,5840.00
2022-09-01T13:40:15.075Z,5724.00
2022-09-01T13:41:15.356Z,5572.00
2022-09-01T13:42:16.245Z,5412.00
2022-09-01T13:43:15.328Z,5352.00
2022-09-01T13:44:15.591Z,5528.00
2022-09-01T13:45:16.531Z,5812.00
2022-09-01T13:46:15.889Z,6012.00
2022-09-01T13:47:30.993Z,5984.00
2022-09-01T13:48:15.819Z,5948.00
2022-09-01T13:50:19.974Z,6244.00
2022-09-01T13:51:18.135Z,6396.00
2022-09-01T13:52:15.418Z,6472.00
2022-09-01T13:53:15.451Z,6468.00
2022-09-01T13:54:15.804Z,6424.00
2022-09-01T13:55:15.517Z,6368.00
2022-09-01T13:56:15.563Z,6244.00
2022-09-01T13:57:15.590Z,6088.00
2022-09-01T13:58:15.624Z,5992.00